Time;durP1;ratioP1;P1;durP2;ratioP2;P2;SDS_P1;SDS_P2;PMS_P1;PMS_P2;Temp;Humidity;BMP_temperature;BMP_pressure;BME280_temperature;BME280_humidity;BME280_pressure;Samples;Min_cycle;Max_cycle;Signal;HPM_P1;HPM_P2
2022/06/21 00:01:41;;;;;;;6.53;2.97;;;16.50;95.60;;;;;;4970161;28;20327;-68
2022/06/21 00:04:07;;;;;;;5.75;3.05;;;16.50;95.50;;;;;;4980679;28;20114;-68
2022/06/21 00:06:33;;;;;;;5.18;2.90;;;16.40;95.60;;;;;;4975493;28;20293;-67
2022/06/21 00:08:58;;;;;;;5.85;2.85;;;16.40;95.80;;;;;;4967183;28;20371;-67
2022/06/21 00:11:30;;;;;;;5.40;3.40;;;16.40;95.70;;;;;;4970843;28;20026;-67
2022/06/21 00:13:56;;;;;;;5.90;2.92;;;16.40;95.80;;;;;;5003527;28;20061;-67
2022/06/21 00:16:24;;;;;;;6.00;3.30;;;16.40;95.70;;;;;;4966318;28;20027;-68
2022/06/21 00:18:50;;;;;;;6.30;3.30;;;16.30;95.90;;;;;;4970772;28;20061;-67
2022/06/21 00:21:20;;;;;;;5.90;3.40;;;16.10;95.80;;;;;;4975730;28;20030;-67
2022/06/21 00:23:47;;;;;;;4.68;2.78;;;16.00;96.00;;;;;;4982170;28;20127;-67
2022/06/21 00:26:14;;;;;;;5.20;3.33;;;15.80;96.00;;;;;;4963357;28;20153;-67
2022/06/21 00:28:40;;;;;;;7.97;3.28;;;15.70;96.10;;;;;;4965255;28;20324;-67
2022/06/21 00:31:19;;;;;;;6.25;3.58;;;15.50;96.20;;;;;;4966461;28;20089;-67
2022/06/21 00:33:50;;;;;;;6.00;3.08;;;15.40;96.20;;;;;;4964380;28;20079;-67
2022/06/21 00:36:28;;;;;;;7.00;3.17;;;15.30;96.20;;;;;;4970676;28;20116;-67
2022/06/21 00:38:56;;;;;;;4.50;2.83;;;15.20;96.30;;;;;;4964395;28;20043;-68
2022/06/21 00:41:39;;;;;;;5.32;3.05;;;15.20;96.30;;;;;;5044505;28;20036;-67
2022/06/21 00:44:08;;;;;;;6.32;3.17;;;15.10;96.00;;;;;;4974060;28;20023;-67
2022/06/21 00:46:40;;;;;;;6.40;2.88;;;15.00;96.00;;;;;;4965865;28;20320;-66
2022/06/21 00:49:32;;;;;;;4.78;2.88;;;14.90;96.00;;;;;;4977242;28;20438;-68
2022/06/21 00:52:05;;;;;;;4.97;3.03;;;14.70;95.70;;;;;;4958744;28;20435;-66
2022/06/21 00:54:49;;;;;;;5.30;3.25;;;14.60;95.70;;;;;;4962647;28;20053;-67
2022/06/21 00:57:18;;;;;;;6.53;3.67;;;14.50;95.20;;;;;;4963618;28;20054;-67
2022/06/21 00:59:49;;;;;;;7.15;3.80;;;14.40;95.50;;;;;;4974234;28;20070;-67
2022/06/21 01:02:21;;;;;;;6.25;3.30;;;14.30;95.30;;;;;;5002011;28;20045;-67
2022/06/21 01:04:52;;;;;;;6.40;3.40;;;14.20;95.20;;;;;;4967823;28;20042;-67
2022/06/21 01:07:18;;;;;;;6.35;3.88;;;14.10;95.10;;;;;;4974308;28;20297;-66
2022/06/21 01:10:07;;;;;;;4.97;3.30;;;14.00;94.70;;;;;;4970278;28;20035;-66
2022/06/21 01:12:42;;;;;;;6.35;3.47;;;13.90;94.60;;;;;;4972574;28;20027;-67
2022/06/21 01:15:18;;;;;;;5.97;3.28;;;13.80;94.50;;;;;;4976787;28;20039;-67
2022/06/21 01:17:46;;;;;;;6.15;3.80;;;13.70;94.10;;;;;;4964799;28;20030;-67
2022/06/21 01:20:19;;;;;;;5.75;3.47;;;13.60;93.70;;;;;;4964456;28;20459;-67
2022/06/21 01:22:57;;;;;;;5.57;3.57;;;13.50;93.30;;;;;;4967041;28;20641;-66
2022/06/21 01:26:10;;;;;;;6.28;3.83;;;13.40;92.70;;;;;;4969459;28;20043;-67
2022/06/21 01:28:36;;;;;;;7.25;3.90;;;13.40;93.00;;;;;;4969819;28;20066;-67
2022/06/21 01:31:02;;;;;;;5.78;4.43;;;13.40;92.70;;;;;;4967236;28;20030;-68
2022/06/21 01:33:38;;;;;;;6.78;4.43;;;13.30;92.60;;;;;;4970460;28;20320;-67
2022/06/21 01:36:35;;;;;;;6.13;3.90;;;13.30;92.40;;;;;;4972089;28;20031;-67
2022/06/21 01:39:05;;;;;;;6.13;3.75;;;13.10;92.10;;;;;;4966262;28;20042;-66
2022/06/21 01:41:41;;;;;;;7.70;4.18;;;13.10;91.90;;;;;;4975066;28;20015;-66
2022/06/21 01:44:13;;;;;;;6.82;4.10;;;13.10;91.50;;;;;;4974737;28;20065;-66
2022/06/21 01:46:40;;;;;;;7.07;4.20;;;13.10;91.10;;;;;;4977246;28;20027;-66
2022/06/21 01:49:14;;;;;;;7.25;3.83;;;13.00;91.40;;;;;;4967358;28;20169;-68
2022/06/21 01:51:49;;;;;;;7.22;4.40;;;12.90;91.30;;;;;;4973236;28;20051;-68
2022/06/21 01:54:17;;;;;;;7.05;4.05;;;12.80;91.30;;;;;;4971444;28;20034;-68
2022/06/21 01:56:46;;;;;;;5.82;3.97;;;12.80;91.00;;;;;;4961800;28;20030;-68
2022/06/21 01:59:24;;;;;;;7.88;4.00;;;12.80;90.70;;;;;;4971423;28;20369;-67
2022/06/21 02:01:57;;;;;;;7.15;4.70;;;12.70;90.50;;;;;;4968822;28;20107;-68
2022/06/21 02:04:27;;;;;;;7.32;4.70;;;12.60;90.30;;;;;;4973587;28;20039;-67
2022/06/21 02:06:56;;;;;;;6.05;4.65;;;12.60;90.00;;;;;;4984622;28;20320;-67
2022/06/21 02:09:36;;;;;;;6.88;4.38;;;12.50;89.80;;;;;;4966482;28;20036;-68
2022/06/21 02:12:09;;;;;;;6.85;4.15;;;12.50;88.60;;;;;;4975344;28;20479;-67
2022/06/21 02:14:39;;;;;;;8.23;5.00;;;12.50;88.90;;;;;;4978304;28;20080;-66
2022/06/21 02:17:26;;;;;;;5.95;4.47;;;12.50;88.70;;;;;;4972442;28;20047;-68
2022/06/21 02:20:13;;;;;;;5.93;3.90;;;12.50;88.40;;;;;;4974357;28;20432;-66
2022/06/21 02:22:40;;;;;;;6.32;4.47;;;12.50;88.30;;;;;;4971413;28;20022;-67
2022/06/21 02:25:09;;;;;;;6.15;4.70;;;12.50;88.50;;;;;;4975561;28;20113;-67
2022/06/21 02:27:36;;;;;;;8.57;4.30;;;12.50;88.40;;;;;;4964133;28;20033;-67
2022/06/21 02:30:11;;;;;;;6.40;4.30;;;12.50;88.20;;;;;;4973700;28;20053;-67
2022/06/21 02:32:40;;;;;;;7.40;5.15;;;12.50;88.50;;;;;;4970404;28;20501;-67
2022/06/21 02:35:11;;;;;;;7.85;5.10;;;12.50;88.40;;;;;;4976614;28;20362;-68
2022/06/21 02:37:38;;;;;;;6.32;4.10;;;12.50;88.50;;;;;;4988256;28;20042;-67
2022/06/21 02:40:07;;;;;;;9.00;5.22;;;12.50;88.50;;;;;;4967743;28;20517;-68
2022/06/21 02:42:35;;;;;;;6.10;4.57;;;12.50;88.80;;;;;;4970143;28;20117;-67
2022/06/21 02:45:32;;;;;;;8.60;5.10;;;12.50;88.60;;;;;;4974073;28;20019;-67
2022/06/21 02:48:08;;;;;;;7.53;5.22;;;12.50;88.50;;;;;;4972713;28;20089;-67
2022/06/21 02:50:50;;;;;;;6.20;4.68;;;12.60;88.00;;;;;;4974723;28;20423;-68
2022/06/21 02:53:32;;;;;;;6.47;4.40;;;12.60;88.60;;;;;;4972957;28;20027;-67
2022/06/21 02:56:23;;;;;;;6.53;4.60;;;12.60;88.60;;;;;;4969784;28;20325;-67
2022/06/21 02:58:56;;;;;;;7.38;4.95;;;12.50;89.00;;;;;;4966428;28;20097;-67
2022/06/21 03:01:33;;;;;;;9.25;5.13;;;12.40;88.90;;;;;;4970424;28;20029;-67
2022/06/21 03:03:59;;;;;;;6.88;4.05;;;12.40;88.20;;;;;;4991205;28;20033;-67
2022/06/21 03:06:30;;;;;;;8.45;4.10;;;12.30;88.40;;;;;;4979497;28;20377;-67
2022/06/21 03:09:00;;;;;;;8.20;5.78;;;12.40;87.20;;;;;;4972825;28;20018;-67
2022/06/21 03:11:31;;;;;;;9.10;5.30;;;12.60;87.30;;;;;;5012168;28;20016;-67
2022/06/21 03:14:02;;;;;;;7.65;4.60;;;12.70;88.30;;;;;;4980413;28;20042;-67
2022/06/21 03:16:30;;;;;;;8.18;4.70;;;12.60;89.50;;;;;;4964141;28;20031;-66
2022/06/21 03:19:00;;;;;;;7.03;4.60;;;12.40;89.50;;;;;;4969697;28;20023;-67
2022/06/21 03:21:30;;;;;;;7.57;4.68;;;12.40;89.00;;;;;;4957629;28;20063;-67
2022/06/21 03:23:57;;;;;;;6.50;4.22;;;12.30;89.00;;;;;;4966309;28;20080;-67
2022/06/21 03:26:26;;;;;;;6.32;4.40;;;12.30;88.80;;;;;;4972488;28;20326;-67
2022/06/21 03:28:52;;;;;;;7.63;4.25;;;12.20;88.60;;;;;;4978824;28;20031;-67
2022/06/21 03:31:21;;;;;;;6.10;4.00;;;12.20;88.40;;;;;;4974445;28;20101;-66
2022/06/21 03:33:52;;;;;;;5.90;4.50;;;12.20;88.10;;;;;;4965714;28;20031;-67
2022/06/21 03:36:21;;;;;;;6.85;5.10;;;12.20;87.50;;;;;;4968361;28;20023;-67
2022/06/21 03:38:59;;;;;;;7.03;5.25;;;12.30;87.40;;;;;;4974644;28;20113;-67
2022/06/21 03:41:43;;;;;;;7.22;5.13;;;12.30;87.10;;;;;;4960950;28;20054;-68
2022/06/21 03:44:33;;;;;;;10.30;5.82;;;12.50;86.90;;;;;;4975726;28;20064;-68
2022/06/21 03:47:10;;;;;;;7.93;5.43;;;12.60;86.90;;;;;;4975100;28;20026;-68
2022/06/21 03:49:42;;;;;;;6.75;4.88;;;12.70;87.80;;;;;;4989376;28;20028;-67
2022/06/21 03:52:15;;;;;;;9.60;5.70;;;12.80;88.20;;;;;;4978084;28;20019;-68
2022/06/21 03:55:08;;;;;;;8.40;5.20;;;12.80;88.40;;;;;;4988021;28;20324;-67
2022/06/21 03:57:38;;;;;;;8.40;6.07;;;13.00;87.80;;;;;;4968464;28;20113;-67
2022/06/21 04:00:09;;;;;;;8.80;5.60;;;13.10;88.70;;;;;;4974333;28;20096;-67
2022/06/21 04:02:55;;;;;;;18.58;14.40;;;13.30;88.90;;;;;;4963242;28;20320;-68
2022/06/21 04:05:29;;;;;;;10.43;8.18;;;13.50;87.70;;;;;;4959152;28;20106;-67
2022/06/21 04:08:22;;;;;;;9.23;7.57;;;13.70;90.00;;;;;;4968955;28;20037;-68
2022/06/21 04:10:58;;;;;;;14.20;11.85;;;13.70;91.20;;;;;;4965245;28;20042;-68
2022/06/21 04:13:52;;;;;;;14.88;12.57;;;14.00;90.60;;;;;;4967484;28;20023;-67
2022/06/21 04:16:30;;;;;;;17.23;14.05;;;14.20;90.80;;;;;;4964220;28;20029;-67
2022/06/21 04:19:28;;;;;;;15.40;12.02;;;14.40;91.40;;;;;;4961036;28;20019;-67
2022/06/21 04:22:30;;;;;;;17.25;14.98;;;14.70;92.30;;;;;;4967390;28;20019;-67
2022/06/21 04:25:09;;;;;;;16.23;14.48;;;14.90;93.20;;;;;;4971466;28;20034;-67
2022/06/21 04:27:43;;;;;;;19.40;15.32;;;15.20;94.30;;;;;;4973392;28;20040;-67
2022/06/21 04:30:36;;;;;;;19.90;14.98;;;15.30;95.00;;;;;;4968137;28;20043;-67
2022/06/21 04:33:06;;;;;;;18.38;15.32;;;15.40;95.50;;;;;;4966069;28;20110;-67
2022/06/21 04:35:44;;;;;;;18.65;15.52;;;15.60;96.70;;;;;;4957692;28;20371;-67
2022/06/21 04:38:33;;;;;;;20.27;15.80;;;15.70;97.00;;;;;;4964334;28;20044;-66
2022/06/21 04:41:07;;;;;;;18.30;14.23;;;15.80;97.80;;;;;;4972349;28;20036;-66
2022/06/21 04:43:49;;;;;;;18.08;15.02;;;15.70;97.50;;;;;;4969238;28;20011;-67
2022/06/21 04:46:35;;;;;;;19.05;14.57;;;15.70;96.80;;;;;;4964421;28;20060;-68
2022/06/21 04:49:11;;;;;;;14.05;11.25;;;15.60;96.70;;;;;;4971056;28;20114;-67
2022/06/21 04:52:03;;;;;;;14.82;11.77;;;15.50;96.50;;;;;;4964673;28;20093;-67
2022/06/21 04:54:32;;;;;;;13.50;8.60;;;15.50;96.20;;;;;;4957490;28;20043;-68
2022/06/21 04:57:24;;;;;;;8.43;6.35;;;15.40;95.10;;;;;;4959504;28;20026;-66
2022/06/21 05:00:19;;;;;;;12.38;5.63;;;15.40;93.60;;;;;;4970998;28;20311;-67
2022/06/21 05:02:59;;;;;;;7.70;4.47;;;15.30;92.70;;;;;;4949770;28;20088;-67
2022/06/21 05:05:29;;;;;;;6.45;4.20;;;15.20;91.40;;;;;;4959831;28;20031;-67
2022/06/21 05:08:09;;;;;;;6.97;3.47;;;15.20;91.00;;;;;;4968403;28;20456;-69
2022/06/21 05:10:38;;;;;;;5.57;2.83;;;15.20;88.70;;;;;;4961927;28;20117;-67
2022/06/21 05:13:29;;;;;;;7.50;3.78;;;15.10;88.10;;;;;;4973708;28;20118;-67
2022/06/21 05:15:59;;;;;;;7.72;3.38;;;15.10;88.40;;;;;;4972755;28;20023;-67
2022/06/21 05:18:33;;;;;;;6.50;2.80;;;15.20;89.10;;;;;;4973846;28;20337;-68
2022/06/21 05:21:13;;;;;;;5.22;2.38;;;15.20;87.00;;;;;;4966571;28;20030;-69
2022/06/21 05:23:39;;;;;;;6.97;3.20;;;15.20;87.30;;;;;;4974439;28;20043;-67
2022/06/21 05:26:14;;;;;;;5.20;2.70;;;15.20;87.40;;;;;;4972460;28;20031;-67
2022/06/21 05:28:55;;;;;;;8.27;3.40;;;15.20;87.20;;;;;;4976991;28;20102;-67
2022/06/21 05:31:26;;;;;;;7.60;3.08;;;15.20;87.50;;;;;;4973109;28;20021;-67
2022/06/21 05:33:57;;;;;;;5.65;3.60;;;15.20;87.30;;;;;;4976250;28;20092;-67
2022/06/21 05:36:30;;;;;;;5.20;3.25;;;15.30;89.10;;;;;;4966939;28;20089;-68
2022/06/21 05:39:22;;;;;;;6.18;3.17;;;15.40;88.10;;;;;;4957277;28;20048;-67
2022/06/21 05:41:51;;;;;;;6.15;2.90;;;15.50;87.60;;;;;;5019416;28;20071;-68
2022/06/21 05:44:54;;;;;;;6.07;3.17;;;15.60;87.10;;;;;;5046591;28;20019;-67
2022/06/21 05:47:28;;;;;;;6.45;2.88;;;15.70;87.50;;;;;;5033076;28;20030;-68
2022/06/21 05:49:56;;;;;;;6.32;3.10;;;15.90;87.40;;;;;;4975985;28;20613;-68
2022/06/21 05:52:26;;;;;;;7.85;3.60;;;16.00;87.30;;;;;;4973373;28;20030;-68
2022/06/21 05:54:58;;;;;;;7.05;3.10;;;16.00;86.70;;;;;;4976502;28;20030;-68
2022/06/21 05:57:38;;;;;;;6.35;2.90;;;16.10;86.40;;;;;;4976505;28;20027;-68
2022/06/21 06:00:04;;;;;;;6.82;3.40;;;16.10;87.30;;;;;;4957133;28;20368;-68
2022/06/21 06:02:43;;;;;;;7.60;2.88;;;16.10;87.20;;;;;;4950366;28;21727;-68
2022/06/21 06:05:18;;;;;;;6.38;3.17;;;16.40;86.80;;;;;;4951892;28;20031;-68
2022/06/21 06:08:08;;;;;;;7.22;3.15;;;16.50;85.70;;;;;;4950327;28;20050;-68
2022/06/21 06:10:35;;;;;;;8.05;2.92;;;16.70;85.80;;;;;;4953029;28;20038;-68
2022/06/21 06:13:06;;;;;;;4.70;2.67;;;16.80;85.20;;;;;;4949981;28;20626;-68
2022/06/21 06:15:41;;;;;;;8.82;3.40;;;17.00;84.50;;;;;;4953882;28;20918;-76
2022/06/21 06:18:30;;;;;;;7.10;3.42;;;16.80;85.90;;;;;;4966596;28;20054;-68
2022/06/21 06:20:59;;;;;;;9.20;3.38;;;16.40;87.00;;;;;;4952612;28;20516;-68
2022/06/21 06:23:38;;;;;;;9.15;3.20;;;16.00;88.80;;;;;;4951199;28;20031;-68
2022/06/21 06:26:24;;;;;;;6.82;3.42;;;15.90;91.10;;;;;;4952820;28;20034;-68
2022/06/21 06:29:16;;;;;;;8.20;3.40;;;15.90;90.10;;;;;;4949985;28;20031;-68
2022/06/21 06:32:27;;;;;;;6.65;3.33;;;15.80;90.00;;;;;;4947360;28;20041;-68
2022/06/21 06:34:53;;;;;;;9.38;3.47;;;15.90;88.70;;;;;;4949801;28;20412;-68
2022/06/21 06:37:36;;;;;;;10.15;3.45;;;16.10;88.80;;;;;;4947202;28;20032;-68
2022/06/21 06:40:05;;;;;;;5.95;3.10;;;16.50;89.10;;;;;;4949623;28;21087;-68
2022/06/21 06:42:36;;;;;;;5.95;3.28;;;16.90;88.70;;;;;;4949008;28;20088;-68
2022/06/21 06:45:11;;;;;;;7.05;3.28;;;17.10;89.60;;;;;;4950091;28;20165;-68
2022/06/21 06:47:47;;;;;;;5.57;3.08;;;17.30;89.30;;;;;;4957295;28;20319;-68
2022/06/21 06:50:29;;;;;;;8.73;3.00;;;17.60;88.00;;;;;;4957219;28;20031;-68
2022/06/21 06:52:58;;;;;;;5.57;2.67;;;18.00;87.90;;;;;;4962974;28;20031;-68
2022/06/21 06:55:44;;;;;;;5.15;2.90;;;18.40;84.90;;;;;;4973292;28;20053;-68
2022/06/21 06:58:23;;;;;;;5.93;2.50;;;18.90;84.30;;;;;;4975747;28;20328;-68
2022/06/21 07:00:54;;;;;;;8.57;3.30;;;19.40;82.90;;;;;;4975390;28;20026;-68
2022/06/21 07:03:31;;;;;;;8.20;3.38;;;19.80;79.30;;;;;;4975645;28;20019;-68
2022/06/21 07:06:12;;;;;;;4.88;2.60;;;19.70;79.30;;;;;;4973531;28;20039;-68
2022/06/21 07:09:01;;;;;;;6.05;2.63;;;19.50;79.00;;;;;;4975624;28;20030;-68
2022/06/21 07:11:39;;;;;;;5.60;2.45;;;19.80;80.20;;;;;;4975317;28;20033;-68
2022/06/21 07:14:19;;;;;;;5.82;2.25;;;20.30;78.40;;;;;;4975368;28;20027;-68
2022/06/21 07:17:12;;;;;;;6.00;2.58;;;20.90;77.30;;;;;;4975504;28;20042;-68
2022/06/21 07:19:37;;;;;;;5.53;2.50;;;21.30;76.10;;;;;;4935829;28;20542;-68
2022/06/21 07:22:20;;;;;;;7.10;2.72;;;21.20;76.00;;;;;;4972896;28;20027;-68
2022/06/21 07:24:59;;;;;;;4.82;2.45;;;21.10;75.10;;;;;;4975313;28;20120;-68
2022/06/21 07:27:26;;;;;;;7.03;2.67;;;20.70;76.80;;;;;;4975419;28;20031;-67
2022/06/21 07:30:10;;;;;;;5.55;2.30;;;20.60;77.20;;;;;;4975104;28;20110;-67
2022/06/21 07:32:54;;;;;;;6.32;2.40;;;20.70;77.90;;;;;;4975235;28;20054;-67
2022/06/21 07:35:24;;;;;;;4.40;2.05;;;21.00;76.50;;;;;;4972902;28;20325;-67
2022/06/21 07:37:56;;;;;;;5.75;2.40;;;20.90;76.70;;;;;;4975207;28;20419;-69
2022/06/21 07:40:35;;;;;;;4.50;2.22;;;20.90;77.00;;;;;;4974851;28;20042;-69
2022/06/21 07:43:41;;;;;;;6.70;2.53;;;21.00;76.90;;;;;;4975041;28;20080;-69
2022/06/21 07:46:10;;;;;;;5.47;2.38;;;21.20;75.60;;;;;;4896882;29;20037;-68
2022/06/21 07:48:45;;;;;;;6.57;2.75;;;21.10;76.70;;;;;;4896924;29;20036;-68
2022/06/21 07:51:17;;;;;;;5.90;2.10;;;20.90;75.30;;;;;;4936568;28;20056;-68
2022/06/21 07:53:58;;;;;;;5.93;2.30;;;21.10;75.10;;;;;;4974796;28;20058;-68
2022/06/21 07:56:39;;;;;;;7.18;2.33;;;21.40;76.30;;;;;;4974872;28;20035;-68
2022/06/21 07:59:29;;;;;;;8.10;2.28;;;21.50;73.30;;;;;;4955586;28;20373;-68
2022/06/21 08:07:50;;;;;;;5.50;1.80;;;22.10;72.20;;;;;;4974539;28;20038;-68
2022/06/21 08:10:21;;;;;;;5.65;2.17;;;22.10;72.60;;;;;;4974665;28;20306;-68
2022/06/21 08:12:48;;;;;;;4.22;2.00;;;22.10;72.20;;;;;;4974404;28;20039;-68
2022/06/21 08:15:17;;;;;;;3.80;1.75;;;22.60;71.10;;;;;;4974456;28;20031;-68
2022/06/21 08:17:53;;;;;;;5.45;1.88;;;22.90;70.50;;;;;;4974621;28;20097;-68
2022/06/21 08:20:28;;;;;;;5.25;1.77;;;23.00;71.30;;;;;;4972343;28;20027;-68
2022/06/21 08:23:09;;;;;;;5.70;2.60;;;23.60;69.00;;;;;;4974299;28;20031;-68
2022/06/21 08:25:47;;;;;;;5.95;1.95;;;24.50;67.70;;;;;;4974589;28;20031;-68
2022/06/21 08:28:17;;;;;;;5.00;1.85;;;24.50;66.20;;;;;;4970335;28;20027;-68
2022/06/21 08:31:04;;;;;;;7.18;2.47;;;24.20;67.80;;;;;;4976271;28;20451;-68
2022/06/21 08:33:52;;;;;;;5.35;1.63;;;24.10;68.00;;;;;;4970844;28;20404;-68
2022/06/21 08:36:23;;;;;;;4.35;1.90;;;24.10;69.30;;;;;;4973202;28;20038;-68
2022/06/21 08:39:19;;;;;;;4.13;1.65;;;24.10;68.50;;;;;;4973167;28;20050;-68
2022/06/21 08:42:15;;;;;;;5.68;1.90;;;24.10;69.30;;;;;;4981634;28;20046;-68
2022/06/21 08:45:40;;;;;;;4.85;2.10;;;23.40;71.50;;;;;;4972206;28;20386;-68
2022/06/21 08:48:15;;;;;;;6.03;2.40;;;22.80;74.70;;;;;;4966100;28;20339;-68
2022/06/21 08:50:52;;;;;;;5.75;2.30;;;22.30;79.30;;;;;;4953769;28;20027;-68
2022/06/21 08:53:38;;;;;;;4.47;2.20;;;22.10;78.70;;;;;;4956346;28;20407;-68
2022/06/21 08:56:26;;;;;;;4.38;2.03;;;22.40;77.60;;;;;;4956537;28;20035;-68
2022/06/21 08:59:01;;;;;;;8.35;1.95;;;23.30;74.60;;;;;;4966813;28;20027;-68
2022/06/21 09:01:39;;;;;;;5.68;2.05;;;24.20;70.60;;;;;;4975041;28;20034;-68
2022/06/21 09:04:20;;;;;;;4.80;2.28;;;24.60;71.00;;;;;;4976285;28;20049;-68
2022/06/21 09:07:12;;;;;;;5.65;2.10;;;24.90;70.00;;;;;;4976144;28;20104;-68
2022/06/21 09:09:49;;;;;;;4.25;1.77;;;25.80;66.60;;;;;;4964972;28;20027;-69
2022/06/21 09:12:18;;;;;;;4.10;1.88;;;27.30;63.80;;;;;;4974475;28;20088;-68
2022/06/21 09:15:14;;;;;;;8.23;2.10;;;27.70;62.60;;;;;;4970112;28;20067;-68
2022/06/21 09:18:06;;;;;;;5.20;2.00;;;27.90;61.60;;;;;;4976230;28;20058;-69
2022/06/21 09:20:56;;;;;;;4.63;1.60;;;28.20;61.90;;;;;;4956682;28;20305;-68
2022/06/21 09:23:58;;;;;;;9.23;2.00;;;28.50;60.80;;;;;;4957868;28;20055;-68
2022/06/21 09:26:38;;;;;;;5.32;2.08;;;27.60;62.30;;;;;;4957943;28;20165;-68
2022/06/21 09:29:18;;;;;;;7.20;2.70;;;28.20;64.30;;;;;;4962753;28;20027;-68
2022/06/21 09:31:58;;;;;;;7.65;2.45;;;28.70;62.30;;;;;;4957532;28;20031;-68
2022/06/21 09:34:52;;;;;;;5.50;2.42;;;29.00;63.40;;;;;;4970436;28;20057;-68
2022/06/21 09:37:18;;;;;;;4.60;2.05;;;28.70;61.70;;;;;;4956792;28;20027;-68
2022/06/21 09:39:55;;;;;;;6.75;2.80;;;28.20;63.60;;;;;;4957523;28;20353;-68
2022/06/21 09:42:37;;;;;;;6.18;2.72;;;28.00;64.70;;;;;;4957431;28;20304;-68
2022/06/21 09:45:11;;;;;;;7.53;2.72;;;27.80;63.90;;;;;;4956663;28;20031;-67
2022/06/21 09:47:53;;;;;;;7.95;2.65;;;28.20;64.40;;;;;;4957329;28;20027;-68
2022/06/21 09:50:28;;;;;;;7.22;2.80;;;29.20;63.30;;;;;;4973275;28;20030;-68
2022/06/21 09:53:09;;;;;;;6.80;2.70;;;29.60;61.80;;;;;;4975479;28;20097;-68
2022/06/21 09:55:58;;;;;;;6.40;2.65;;;29.80;61.70;;;;;;4957328;28;20030;-68
2022/06/21 09:58:41;;;;;;;11.73;3.33;;;28.90;63.20;;;;;;4957367;28;20100;-68
2022/06/21 10:01:14;;;;;;;6.95;3.63;;;29.00;63.50;;;;;;4968285;28;20123;-68
2022/06/21 10:03:56;;;;;;;7.10;3.17;;;29.00;63.00;;;;;;4976508;28;20076;-68
2022/06/21 10:06:35;;;;;;;7.45;3.40;;;29.30;62.70;;;;;;4970246;28;20038;-68
2022/06/21 10:09:20;;;;;;;7.63;3.45;;;29.70;61.90;;;;;;4976639;28;20035;-68
2022/06/21 10:12:09;;;;;;;8.65;3.38;;;29.40;62.70;;;;;;4959469;28;20102;-68
2022/06/21 10:15:02;;;;;;;7.78;3.58;;;29.60;61.50;;;;;;4956936;28;20353;-68
2022/06/21 10:17:46;;;;;;;8.40;3.63;;;30.40;61.30;;;;;;4973053;28;20031;-68
2022/06/21 10:20:37;;;;;;;10.20;3.70;;;31.00;61.30;;;;;;4974005;28;20035;-67
2022/06/21 10:23:39;;;;;;;15.25;3.83;;;31.50;60.10;;;;;;4976384;28;20023;-67
2022/06/21 10:26:30;;;;;;;7.72;3.45;;;31.90;58.90;;;;;;4974658;28;20035;-67
2022/06/21 10:29:31;;;;;;;8.60;3.53;;;30.80;60.80;;;;;;4976202;28;20345;-67
2022/06/21 10:32:09;;;;;;;10.30;3.50;;;30.40;62.80;;;;;;4970380;28;20034;-67
2022/06/21 10:34:42;;;;;;;8.60;3.67;;;30.30;62.40;;;;;;4975179;28;20426;-69
2022/06/21 10:37:10;;;;;;;11.68;3.70;;;30.60;62.00;;;;;;4974303;28;20100;-68
2022/06/21 10:39:45;;;;;;;11.52;3.78;;;30.80;62.00;;;;;;4975000;28;20079;-68
2022/06/21 10:42:46;;;;;;;8.45;3.30;;;31.50;61.40;;;;;;4956812;29;20030;-68
2022/06/21 10:45:32;;;;;;;5.18;2.38;;;31.30;60.60;;;;;;4956356;28;20042;-68
2022/06/21 10:48:37;;;;;;;15.02;4.03;;;29.40;62.80;;;;;;4962468;28;20026;-68
2022/06/21 10:51:16;;;;;;;;;;;27.90;67.20;;;;;;4994816;28;20043;-69
2022/06/21 10:53:56;;;;;;;6.25;3.20;;;28.00;66.80;;;;;;4956628;28;19914;-68
2022/06/21 10:57:12;;;;;;;8.70;2.97;;;28.50;66.40;;;;;;4969812;28;20415;-68
2022/06/21 11:02:34;;;;;;;7.95;3.40;;;29.70;64.10;;;;;;4974643;28;20041;-68
2022/06/21 11:05:19;;;;;;;5.82;3.10;;;29.80;64.10;;;;;;4972284;28;20038;-67
2022/06/21 11:08:09;;;;;;;7.03;3.63;;;29.70;63.40;;;;;;4974898;28;20043;-69
2022/06/21 11:11:03;;;;;;;8.75;3.45;;;30.00;63.00;;;;;;4979623;28;20309;-68
2022/06/21 11:13:41;;;;;;;8.38;3.70;;;30.00;63.10;;;;;;5003302;28;20047;-68
2022/06/21 11:16:19;;;;;;;8.10;3.60;;;30.10;67.20;;;;;;4968830;28;20367;-67
2022/06/21 11:18:59;;;;;;;6.97;3.60;;;30.40;65.20;;;;;;4970842;28;20109;-68
2022/06/21 11:21:43;;;;;;;6.93;3.90;;;31.10;63.40;;;;;;4965747;28;20035;-67
2022/06/21 11:24:35;;;;;;;7.78;3.85;;;32.00;61.30;;;;;;4976521;28;20026;-67
2022/06/21 11:27:09;;;;;;;9.13;3.88;;;31.20;63.10;;;;;;4972571;28;20015;-68
2022/06/21 11:30:03;;;;;;;8.93;4.07;;;30.70;63.80;;;;;;4971146;28;20019;-67
2022/06/21 11:32:58;;;;;;;8.63;4.05;;;30.80;62.90;;;;;;4972497;28;20031;-68
2022/06/21 11:35:46;;;;;;;6.35;4.00;;;30.20;63.90;;;;;;4967172;28;20031;-68
2022/06/21 11:38:49;;;;;;;7.15;4.00;;;30.00;65.10;;;;;;4970452;28;20496;-67
2022/06/21 11:44:37;;;;;;;7.35;3.78;;;29.60;65.90;;;;;;4966784;28;20029;-67
2022/06/21 11:47:19;;;;;;;7.55;3.85;;;30.00;64.80;;;;;;4971340;28;20054;-68
2022/06/21 11:50:08;;;;;;;7.45;3.97;;;29.90;64.70;;;;;;4968334;28;20034;-68
2022/06/21 11:52:48;;;;;;;7.93;4.43;;;29.60;66.40;;;;;;4957171;28;21453;-67
2022/06/21 11:55:24;;;;;;;7.20;4.72;;;29.30;67.60;;;;;;4967061;28;20038;-68
2022/06/21 11:57:56;;;;;;;7.55;4.00;;;28.50;68.50;;;;;;4951236;28;20031;-67
2022/06/21 12:00:32;;;;;;;8.15;4.25;;;28.60;71.10;;;;;;4949398;28;20114;-68
2022/06/21 12:03:00;;;;;;;5.72;3.58;;;29.30;68.10;;;;;;4944151;28;20432;-68
2022/06/21 12:05:40;;;;;;;7.63;4.03;;;29.30;68.60;;;;;;4958391;28;20439;-67
2022/06/21 12:08:32;;;;;;;6.47;4.20;;;29.90;68.10;;;;;;4970754;28;20747;-68
2022/06/21 12:11:28;;;;;;;7.20;4.30;;;30.60;65.20;;;;;;4951757;28;20288;-68
2022/06/21 12:14:05;;;;;;;11.07;4.70;;;30.30;65.40;;;;;;4946201;28;20035;-68
2022/06/21 12:17:00;;;;;;;7.03;4.07;;;30.80;66.10;;;;;;4949909;28;20045;-69
2022/06/21 12:19:34;;;;;;;8.10;3.75;;;31.30;64.30;;;;;;4947398;28;20034;-68
2022/06/21 12:22:41;;;;;;;9.25;4.57;;;31.90;63.60;;;;;;4945372;28;20037;-68
2022/06/21 12:25:16;;;;;;;7.35;3.58;;;32.10;62.30;;;;;;5003160;28;20073;-67
2022/06/21 12:27:42;;;;;;;6.10;3.72;;;31.80;61.30;;;;;;5004095;28;21382;-68
2022/06/21 12:30:21;;;;;;;6.47;4.38;;;31.60;63.00;;;;;;4970965;28;20122;-69
2022/06/21 12:32:49;;;;;;;8.05;4.18;;;31.50;63.70;;;;;;4946742;28;20379;-68
2022/06/21 12:35:19;;;;;;;8.70;4.10;;;31.80;63.50;;;;;;4947988;28;20035;-68
2022/06/21 12:37:51;;;;;;;8.82;4.60;;;32.00;62.40;;;;;;4947603;28;20069;-68
2022/06/21 12:40:34;;;;;;;15.60;4.70;;;32.10;62.50;;;;;;4943684;28;20664;-68
2022/06/21 12:43:23;;;;;;;10.63;4.40;;;32.10;62.00;;;;;;4947295;28;20035;-68
2022/06/21 12:46:05;;;;;;;9.07;3.85;;;32.00;62.50;;;;;;4948230;28;20061;-68
2022/06/21 12:48:34;;;;;;;9.48;4.25;;;32.20;62.30;;;;;;4947548;28;20034;-68
2022/06/21 12:51:25;;;;;;;6.53;3.65;;;32.40;61.70;;;;;;4947455;28;20724;-69
2022/06/21 12:54:09;;;;;;;9.15;3.80;;;32.90;60.80;;;;;;4956288;28;20455;-67
2022/06/21 12:57:09;;;;;;;7.15;3.70;;;32.60;62.80;;;;;;4970111;28;20046;-67
2022/06/21 13:00:05;;;;;;;9.98;3.90;;;32.40;61.70;;;;;;4956916;28;20028;-68
2022/06/21 13:02:55;;;;;;;10.25;3.95;;;32.30;62.10;;;;;;4947435;28;20093;-68
2022/06/21 13:05:27;;;;;;;7.18;3.50;;;33.00;61.10;;;;;;4945817;28;20102;-68
2022/06/21 13:08:22;;;;;;;7.55;3.22;;;33.40;62.10;;;;;;4947294;28;20035;-68
2022/06/21 13:11:26;;;;;;;9.02;3.88;;;33.50;59.70;;;;;;4947249;28;20066;-68
2022/06/21 13:14:16;;;;;;;7.88;4.00;;;33.60;58.60;;;;;;4950904;28;20031;-68
2022/06/21 13:17:05;;;;;;;8.77;3.33;;;33.00;60.20;;;;;;4947930;28;20031;-68
2022/06/21 13:20:05;;;;;;;8.50;3.55;;;33.00;60.50;;;;;;4952032;28;20071;-68
2022/06/21 13:22:46;;;;;;;15.60;3.88;;;33.60;59.10;;;;;;4957238;28;20058;-67
2022/06/21 13:25:17;;;;;;;12.65;3.28;;;33.80;58.90;;;;;;4948620;28;20027;-68
2022/06/21 13:28:09;;;;;;;8.77;3.80;;;33.90;58.80;;;;;;4964354;28;20039;-68
2022/06/21 13:30:52;;;;;;;7.20;2.72;;;34.50;56.70;;;;;;4950091;28;20110;-68
2022/06/21 13:33:39;;;;;;;6.40;3.63;;;34.70;56.70;;;;;;4946293;28;20141;-68
2022/06/21 13:36:16;;;;;;;8.32;3.28;;;35.00;56.20;;;;;;4945239;28;20118;-68
2022/06/21 13:39:20;;;;;;;9.60;3.50;;;35.20;56.40;;;;;;4946686;28;20043;-68
2022/06/21 13:45:11;;;;;;;8.50;3.28;;;35.50;55.00;;;;;;4950196;28;20061;-68
2022/06/21 13:48:00;;;;;;;7.28;3.38;;;35.20;55.50;;;;;;4963446;28;20055;-68
2022/06/21 13:50:36;;;;;;;8.82;3.17;;;35.80;55.40;;;;;;4948689;28;20030;-68
2022/06/21 13:53:10;;;;;;;10.43;2.92;;;36.30;55.20;;;;;;4954811;28;20074;-68
2022/06/21 13:55:44;;;;;;;8.90;3.22;;;36.30;54.50;;;;;;4972188;28;20109;-68
2022/06/21 13:58:44;;;;;;;6.95;3.20;;;35.90;54.00;;;;;;4979972;28;20450;-68
2022/06/21 14:01:38;;;;;;;7.60;3.55;;;35.80;55.90;;;;;;4972271;28;20027;-68
2022/06/21 14:04:27;;;;;;;7.07;3.38;;;36.50;54.70;;;;;;4962302;28;20078;-68